sensor_id;sensor_type;location;lat;lon;timestamp;pressure;altitude;pressure_sealevel;temperature;humidity
13594;BME280;6449;47.666;9.160;2023-05-25T00:04:50;97191.94;;;13.52;100.00
13594;BME280;6449;47.666;9.160;2023-05-25T00:09:44;97188.84;;;13.47;100.00
13594;BME280;6449;47.666;9.160;2023-05-25T00:14:37;97182.50;;;13.50;100.00
13594;BME280;6449;47.666;9.160;2023-05-25T00:19:31;97193.03;;;13.50;100.00
13594;BME280;6449;47.666;9.160;2023-05-25T00:24:27;97175.66;;;13.58;100.00
13594;BME280;6449;47.666;9.160;2023-05-25T00:29:21;97178.06;;;13.71;100.00
13594;BME280;6449;47.666;9.160;2023-05-25T00:34:14;97168.94;;;13.54;100.00
13594;BME280;6449;47.666;9.160;2023-05-25T00:39:07;97175.97;;;13.65;100.00
13594;BME280;6449;47.666;9.160;2023-05-25T00:44:02;97172.53;;;13.32;100.00
13594;BME280;6449;47.666;9.160;2023-05-25T00:48:56;97172.34;;;13.45;100.00
13594;BME280;6449;47.666;9.160;2023-05-25T00:53:49;97172.13;;;13.69;100.00
13594;BME280;6449;47.666;9.160;2023-05-25T00:58:45;97173.31;;;13.65;100.00
13594;BME280;6449;47.666;9.160;2023-05-25T01:03:47;97179.56;;;13.64;100.00
13594;BME280;6449;47.666;9.160;2023-05-25T01:08:51;97172.22;;;13.68;100.00
13594;BME280;6449;47.666;9.160;2023-05-25T01:13:51;97184.50;;;13.57;100.00
13594;BME280;6449;47.666;9.160;2023-05-25T01:18:46;97178.06;;;13.50;100.00
13594;BME280;6449;47.666;9.160;2023-05-25T01:23:51;97171.75;;;13.42;100.00
13594;BME280;6449;47.666;9.160;2023-05-25T01:28:50;97170.16;;;13.29;100.00
13594;BME280;6449;47.666;9.160;2023-05-25T01:33:46;97170.38;;;13.58;100.00
13594;BME280;6449;47.666;9.160;2023-05-25T01:38:41;97176.00;;;13.33;100.00
13594;BME280;6449;47.666;9.160;2023-05-25T01:43:35;97173.97;;;13.25;100.00
13594;BME280;6449;47.666;9.160;2023-05-25T01:48:38;97173.47;;;13.31;100.00
13594;BME280;6449;47.666;9.160;2023-05-25T01:53:41;97184.13;;;13.30;100.00
13594;BME280;6449;47.666;9.160;2023-05-25T01:58:41;97179.59;;;13.21;100.00
13594;BME280;6449;47.666;9.160;2023-05-25T02:03:34;97177.28;;;13.06;100.00
13594;BME280;6449;47.666;9.160;2023-05-25T02:08:28;97173.06;;;13.04;100.00
13594;BME280;6449;47.666;9.160;2023-05-25T02:13:22;97178.91;;;12.75;100.00
13594;BME280;6449;47.666;9.160;2023-05-25T02:18:16;97163.50;;;12.59;100.00
13594;BME280;6449;47.666;9.160;2023-05-25T02:23:10;97157.44;;;12.48;100.00
13594;BME280;6449;47.666;9.160;2023-05-25T02:28:04;97159.38;;;12.78;100.00
13594;BME280;6449;47.666;9.160;2023-05-25T02:32:57;97152.28;;;12.57;100.00
13594;BME280;6449;47.666;9.160;2023-05-25T02:37:54;97155.38;;;12.51;100.00
13594;BME280;6449;47.666;9.160;2023-05-25T02:42:48;97152.13;;;12.70;100.00
13594;BME280;6449;47.666;9.160;2023-05-25T02:47:41;97150.56;;;12.79;100.00
13594;BME280;6449;47.666;9.160;2023-05-25T02:52:35;97143.84;;;12.86;100.00
13594;BME280;6449;47.666;9.160;2023-05-25T02:57:29;97146.63;;;12.73;100.00
13594;BME280;6449;47.666;9.160;2023-05-25T03:02:23;97131.09;;;12.70;100.00
13594;BME280;6449;47.666;9.160;2023-05-25T03:07:19;97140.78;;;12.70;100.00
13594;BME280;6449;47.666;9.160;2023-05-25T03:12:13;97140.94;;;12.46;100.00
13594;BME280;6449;47.666;9.160;2023-05-25T03:17:08;97143.56;;;12.46;100.00
13594;BME280;6449;47.666;9.160;2023-05-25T03:22:02;97140.00;;;12.47;100.00
13594;BME280;6449;47.666;9.160;2023-05-25T03:26:55;97148.34;;;12.52;100.00
13594;BME280;6449;47.666;9.160;2023-05-25T03:31:49;97147.97;;;12.68;100.00
13594;BME280;6449;47.666;9.160;2023-05-25T03:36:44;97149.66;;;12.35;100.00
13594;BME280;6449;47.666;9.160;2023-05-25T03:41:38;97156.84;;;12.44;100.00
13594;BME280;6449;47.666;9.160;2023-05-25T03:46:31;97163.28;;;12.40;100.00
13594;BME280;6449;47.666;9.160;2023-05-25T03:51:25;97159.72;;;12.52;100.00
13594;BME280;6449;47.666;9.160;2023-05-25T03:56:20;97172.13;;;12.50;100.00
13594;BME280;6449;47.666;9.160;2023-05-25T04:01:14;97168.31;;;12.43;100.00
13594;BME280;6449;47.666;9.160;2023-05-25T04:06:07;97160.78;;;12.39;100.00
13594;BME280;6449;47.666;9.160;2023-05-25T04:11:01;97166.38;;;12.56;100.00
13594;BME280;6449;47.666;9.160;2023-05-25T04:15:55;97165.19;;;12.61;100.00
13594;BME280;6449;47.666;9.160;2023-05-25T04:20:49;97171.28;;;12.50;100.00
13594;BME280;6449;47.666;9.160;2023-05-25T04:25:42;97175.09;;;12.68;100.00
13594;BME280;6449;47.666;9.160;2023-05-25T04:30:36;97176.78;;;12.69;100.00
13594;BME280;6449;47.666;9.160;2023-05-25T04:35:32;97184.41;;;12.61;100.00
13594;BME280;6449;47.666;9.160;2023-05-25T04:40:25;97180.84;;;12.51;100.00
13594;BME280;6449;47.666;9.160;2023-05-25T04:45:19;97181.44;;;12.66;100.00
13594;BME280;6449;47.666;9.160;2023-05-25T04:50:13;97181.38;;;12.88;100.00
13594;BME280;6449;47.666;9.160;2023-05-25T04:55:08;97177.06;;;12.87;100.00
13594;BME280;6449;47.666;9.160;2023-05-25T05:00:02;97171.56;;;12.90;100.00
13594;BME280;6449;47.666;9.160;2023-05-25T05:04:56;97183.19;;;13.20;100.00
13594;BME280;6449;47.666;9.160;2023-05-25T05:09:50;97172.41;;;13.34;100.00
13594;BME280;6449;47.666;9.160;2023-05-25T05:14:44;97179.59;;;13.32;100.00
13594;BME280;6449;47.666;9.160;2023-05-25T05:19:38;97183.25;;;13.41;100.00
13594;BME280;6449;47.666;9.160;2023-05-25T05:24:31;97182.19;;;13.43;100.00
13594;BME280;6449;47.666;9.160;2023-05-25T05:29:25;97187.22;;;13.35;100.00
13594;BME280;6449;47.666;9.160;2023-05-25T05:34:21;97198.91;;;13.42;100.00
13594;BME280;6449;47.666;9.160;2023-05-25T05:39:14;97196.25;;;13.53;100.00
13594;BME280;6449;47.666;9.160;2023-05-25T05:44:07;97191.00;;;13.53;100.00
13594;BME280;6449;47.666;9.160;2023-05-25T05:49:01;97204.09;;;13.65;100.00
13594;BME280;6449;47.666;9.160;2023-05-25T05:53:56;97202.38;;;13.54;100.00
13594;BME280;6449;47.666;9.160;2023-05-25T05:58:49;97201.19;;;13.68;100.00
13594;BME280;6449;47.666;9.160;2023-05-25T06:03:44;97201.94;;;13.70;100.00
13594;BME280;6449;47.666;9.160;2023-05-25T06:08:38;97204.03;;;13.55;100.00
13594;BME280;6449;47.666;9.160;2023-05-25T06:13:34;97193.50;;;13.76;100.00
13594;BME280;6449;47.666;9.160;2023-05-25T06:18:27;97190.66;;;13.68;100.00
13594;BME280;6449;47.666;9.160;2023-05-25T06:23:23;97193.75;;;13.73;100.00
13594;BME280;6449;47.666;9.160;2023-05-25T06:28:19;97200.19;;;13.80;100.00
13594;BME280;6449;47.666;9.160;2023-05-25T06:33:14;97195.75;;;14.01;100.00
13594;BME280;6449;47.666;9.160;2023-05-25T06:38:07;97205.41;;;14.22;100.00
13594;BME280;6449;47.666;9.160;2023-05-25T06:43:02;97212.88;;;14.16;100.00
13594;BME280;6449;47.666;9.160;2023-05-25T06:47:56;97227.38;;;14.22;100.00
13594;BME280;6449;47.666;9.160;2023-05-25T06:52:50;97235.97;;;14.24;100.00
13594;BME280;6449;47.666;9.160;2023-05-25T06:57:44;97233.75;;;14.50;100.00
13594;BME280;6449;47.666;9.160;2023-05-25T07:02:38;97237.19;;;14.72;100.00
13594;BME280;6449;47.666;9.160;2023-05-25T07:07:31;97231.84;;;15.02;100.00
13594;BME280;6449;47.666;9.160;2023-05-25T07:12:26;97234.06;;;14.97;100.00
13594;BME280;6449;47.666;9.160;2023-05-25T07:17:19;97238.50;;;15.06;100.00
13594;BME280;6449;47.666;9.160;2023-05-25T07:22:13;97221.19;;;15.13;100.00
13594;BME280;6449;47.666;9.160;2023-05-25T07:27:08;97227.25;;;15.04;100.00
13594;BME280;6449;47.666;9.160;2023-05-25T07:32:03;97234.13;;;15.36;100.00
13594;BME280;6449;47.666;9.160;2023-05-25T07:36:57;97239.69;;;15.42;100.00
13594;BME280;6449;47.666;9.160;2023-05-25T07:41:50;97244.69;;;15.36;100.00
13594;BME280;6449;47.666;9.160;2023-05-25T07:46:43;97261.47;;;15.15;100.00
13594;BME280;6449;47.666;9.160;2023-05-25T07:51:41;97264.72;;;15.29;100.00
13594;BME280;6449;47.666;9.160;2023-05-25T07:56:35;97264.00;;;15.27;100.00
13594;BME280;6449;47.666;9.160;2023-05-25T08:01:29;97256.53;;;15.70;100.00
13594;BME280;6449;47.666;9.160;2023-05-25T08:06:22;97252.81;;;15.83;100.00
13594;BME280;6449;47.666;9.160;2023-05-25T08:11:23;97245.56;;;15.75;100.00
13594;BME280;6449;47.666;9.160;2023-05-25T08:16:17;97266.78;;;16.32;100.00
13594;BME280;6449;47.666;9.160;2023-05-25T08:21:11;97269.84;;;16.37;100.00
13594;BME280;6449;47.666;9.160;2023-05-25T08:26:04;97267.16;;;17.21;100.00
13594;BME280;6449;47.666;9.160;2023-05-25T08:31:19;97266.81;;;17.06;100.00
13594;BME280;6449;47.666;9.160;2023-05-25T08:36:12;97275.44;;;16.81;100.00
13594;BME280;6449;47.666;9.160;2023-05-25T08:41:07;97289.06;;;16.86;100.00
13594;BME280;6449;47.666;9.160;2023-05-25T08:46:05;97293.00;;;17.37;100.00
13594;BME280;6449;47.666;9.160;2023-05-25T08:51:05;97294.75;;;16.91;100.00
13594;BME280;6449;47.666;9.160;2023-05-25T08:56:05;97290.13;;;17.20;100.00
13594;BME280;6449;47.666;9.160;2023-05-25T09:01:05;97299.81;;;17.12;100.00
13594;BME280;6449;47.666;9.160;2023-05-25T09:06:01;97299.25;;;16.81;100.00
13594;BME280;6449;47.666;9.160;2023-05-25T09:10:56;97311.88;;;16.96;100.00
13594;BME280;6449;47.666;9.160;2023-05-25T09:15:50;97323.47;;;16.95;100.00
13594;BME280;6449;47.666;9.160;2023-05-25T09:20:44;97327.44;;;16.62;100.00
13594;BME280;6449;47.666;9.160;2023-05-25T09:25:40;97324.25;;;17.06;100.00
13594;BME280;6449;47.666;9.160;2023-05-25T09:30:35;97332.81;;;16.90;100.00
13594;BME280;6449;47.666;9.160;2023-05-25T09:35:28;97331.56;;;17.76;100.00
13594;BME280;6449;47.666;9.160;2023-05-25T09:40:22;97340.56;;;18.63;100.00
13594;BME280;6449;47.666;9.160;2023-05-25T09:45:17;97338.53;;;18.57;100.00
13594;BME280;6449;47.666;9.160;2023-05-25T09:50:11;97335.13;;;18.47;100.00
13594;BME280;6449;47.666;9.160;2023-05-25T09:55:08;97334.53;;;18.71;100.00
13594;BME280;6449;47.666;9.160;2023-05-25T10:00:04;97341.16;;;19.01;100.00
13594;BME280;6449;47.666;9.160;2023-05-25T10:05:01;97344.63;;;18.49;100.00
13594;BME280;6449;47.666;9.160;2023-05-25T10:09:57;97349.69;;;18.17;100.00
13594;BME280;6449;47.666;9.160;2023-05-25T10:14:55;97345.81;;;18.73;100.00
13594;BME280;6449;47.666;9.160;2023-05-25T10:19:56;97356.75;;;19.30;100.00
13594;BME280;6449;47.666;9.160;2023-05-25T10:24:58;97349.72;;;19.55;100.00
13594;BME280;6449;47.666;9.160;2023-05-25T10:29:53;97359.47;;;19.88;100.00
13594;BME280;6449;47.666;9.160;2023-05-25T10:34:50;97351.59;;;19.62;100.00
13594;BME280;6449;47.666;9.160;2023-05-25T10:39:45;97353.22;;;19.21;100.00
13594;BME280;6449;47.666;9.160;2023-05-25T10:44:42;97363.13;;;19.45;100.00
13594;BME280;6449;47.666;9.160;2023-05-25T10:49:52;97358.72;;;19.62;100.00
13594;BME280;6449;47.666;9.160;2023-05-25T10:54:47;97359.28;;;19.82;100.00
13594;BME280;6449;47.666;9.160;2023-05-25T10:59:42;97365.19;;;20.26;100.00
13594;BME280;6449;47.666;9.160;2023-05-25T11:04:36;97365.50;;;20.31;100.00
13594;BME280;6449;47.666;9.160;2023-05-25T11:09:30;97372.94;;;19.87;100.00
13594;BME280;6449;47.666;9.160;2023-05-25T11:14:29;97376.34;;;19.63;100.00
13594;BME280;6449;47.666;9.160;2023-05-25T11:19:23;97364.44;;;19.83;100.00
13594;BME280;6449;47.666;9.160;2023-05-25T11:24:30;97362.34;;;20.20;100.00
13594;BME280;6449;47.666;9.160;2023-05-25T11:29:23;97357.38;;;20.57;100.00
13594;BME280;6449;47.666;9.160;2023-05-25T11:34:21;97361.88;;;20.57;100.00
13594;BME280;6449;47.666;9.160;2023-05-25T11:39:20;97361.34;;;20.86;100.00
13594;BME280;6449;47.666;9.160;2023-05-25T11:44:14;97362.03;;;20.88;100.00
13594;BME280;6449;47.666;9.160;2023-05-25T11:49:08;97369.19;;;20.79;100.00
13594;BME280;6449;47.666;9.160;2023-05-25T11:54:01;97355.84;;;20.71;100.00
13594;BME280;6449;47.666;9.160;2023-05-25T11:58:56;97367.66;;;20.28;100.00
13594;BME280;6449;47.666;9.160;2023-05-25T12:03:51;97362.06;;;20.47;100.00
13594;BME280;6449;47.666;9.160;2023-05-25T12:08:48;97365.19;;;20.42;100.00
13594;BME280;6449;47.666;9.160;2023-05-25T12:13:41;97356.88;;;20.54;100.00
13594;BME280;6449;47.666;9.160;2023-05-25T12:18:36;97360.88;;;20.58;100.00
13594;BME280;6449;47.666;9.160;2023-05-25T12:23:29;97354.34;;;20.28;100.00
13594;BME280;6449;47.666;9.160;2023-05-25T12:28:23;97348.53;;;20.32;100.00
13594;BME280;6449;47.666;9.160;2023-05-25T12:33:16;97346.19;;;20.37;100.00
13594;BME280;6449;47.666;9.160;2023-05-25T12:38:12;97346.84;;;20.39;100.00
13594;BME280;6449;47.666;9.160;2023-05-25T12:43:06;97346.34;;;20.28;100.00
13594;BME280;6449;47.666;9.160;2023-05-25T12:48:00;97360.84;;;20.25;100.00
13594;BME280;6449;47.666;9.160;2023-05-25T12:53:00;97353.53;;;20.35;100.00
13594;BME280;6449;47.666;9.160;2023-05-25T12:57:57;97360.16;;;20.07;100.00
13594;BME280;6449;47.666;9.160;2023-05-25T13:02:53;97365.16;;;20.18;100.00
13594;BME280;6449;47.666;9.160;2023-05-25T13:07:46;97363.50;;;20.33;100.00
13594;BME280;6449;47.666;9.160;2023-05-25T13:12:40;97359.19;;;20.40;100.00
13594;BME280;6449;47.666;9.160;2023-05-25T13:17:35;97348.38;;;20.50;100.00
13594;BME280;6449;47.666;9.160;2023-05-25T13:22:28;97350.38;;;20.40;100.00
13594;BME280;6449;47.666;9.160;2023-05-25T13:27:22;97359.34;;;20.31;100.00
13594;BME280;6449;47.666;9.160;2023-05-25T13:32:16;97350.72;;;20.53;100.00
13594;BME280;6449;47.666;9.160;2023-05-25T13:37:11;97354.88;;;20.48;100.00
13594;BME280;6449;47.666;9.160;2023-05-25T13:42:05;97349.03;;;20.60;100.00
13594;BME280;6449;47.666;9.160;2023-05-25T13:46:58;97351.22;;;20.73;100.00
13594;BME280;6449;47.666;9.160;2023-05-25T13:51:52;97357.56;;;20.48;100.00
13594;BME280;6449;47.666;9.160;2023-05-25T13:56:46;97366.22;;;20.58;100.00
13594;BME280;6449;47.666;9.160;2023-05-25T14:01:40;97357.53;;;20.56;100.00
13594;BME280;6449;47.666;9.160;2023-05-25T14:06:36;97362.88;;;20.64;100.00
13594;BME280;6449;47.666;9.160;2023-05-25T14:11:29;97365.38;;;20.57;100.00
13594;BME280;6449;47.666;9.160;2023-05-25T14:16:24;97358.34;;;20.32;100.00
13594;BME280;6449;47.666;9.160;2023-05-25T14:21:18;97359.53;;;20.54;100.00
13594;BME280;6449;47.666;9.160;2023-05-25T14:26:11;97357.53;;;20.64;100.00
13594;BME280;6449;47.666;9.160;2023-05-25T14:31:05;97361.50;;;20.76;100.00
13594;BME280;6449;47.666;9.160;2023-05-25T14:35:59;97358.53;;;20.79;100.00
13594;BME280;6449;47.666;9.160;2023-05-25T14:40:53;97363.50;;;20.82;100.00
13594;BME280;6449;47.666;9.160;2023-05-25T14:45:46;97357.34;;;20.90;100.00
13594;BME280;6449;47.666;9.160;2023-05-25T14:50:40;97343.53;;;20.70;100.00
13594;BME280;6449;47.666;9.160;2023-05-25T14:55:36;97352.69;;;20.76;100.00
13594;BME280;6449;47.666;9.160;2023-05-25T15:00:30;97346.84;;;20.88;100.00
13594;BME280;6449;47.666;9.160;2023-05-25T15:05:23;97362.16;;;20.95;100.00
13594;BME280;6449;47.666;9.160;2023-05-25T15:10:16;97366.34;;;20.81;100.00
13594;BME280;6449;47.666;9.160;2023-05-25T15:15:12;97365.34;;;20.82;100.00
13594;BME280;6449;47.666;9.160;2023-05-25T15:20:07;97369.69;;;20.75;100.00
13594;BME280;6449;47.666;9.160;2023-05-25T15:25:00;97362.19;;;20.70;100.00
13594;BME280;6449;47.666;9.160;2023-05-25T15:29:54;97365.53;;;20.64;100.00
13594;BME280;6449;47.666;9.160;2023-05-25T15:34:48;97365.19;;;20.75;100.00
13594;BME280;6449;47.666;9.160;2023-05-25T15:39:42;97360.22;;;20.72;100.00
13594;BME280;6449;47.666;9.160;2023-05-25T15:44:35;97368.69;;;20.76;100.00
13594;BME280;6449;47.666;9.160;2023-05-25T15:49:28;97366.53;;;20.63;100.00
13594;BME280;6449;47.666;9.160;2023-05-25T15:54:24;97367.53;;;20.70;100.00
13594;BME280;6449;47.666;9.160;2023-05-25T15:59:17;97370.50;;;20.75;100.00
13594;BME280;6449;47.666;9.160;2023-05-25T16:04:11;97378.19;;;20.62;100.00
13594;BME280;6449;47.666;9.160;2023-05-25T16:09:04;97375.69;;;20.52;100.00
13594;BME280;6449;47.666;9.160;2023-05-25T16:13:59;97384.00;;;20.41;100.00
13594;BME280;6449;47.666;9.160;2023-05-25T16:18:52;97393.34;;;20.53;100.00
13594;BME280;6449;47.666;9.160;2023-05-25T16:23:46;97390.50;;;20.55;100.00
13594;BME280;6449;47.666;9.160;2023-05-25T16:28:39;97386.84;;;20.64;100.00
13594;BME280;6449;47.666;9.160;2023-05-25T16:33:34;97387.84;;;20.47;100.00
13594;BME280;6449;47.666;9.160;2023-05-25T16:38:27;97379.50;;;20.25;100.00
13594;BME280;6449;47.666;9.160;2023-05-25T16:43:20;97377.66;;;20.42;100.00
13594;BME280;6449;47.666;9.160;2023-05-25T16:48:16;97376.00;;;20.65;100.00
13594;BME280;6449;47.666;9.160;2023-05-25T16:53:14;97380.34;;;20.58;100.00
13594;BME280;6449;47.666;9.160;2023-05-25T16:58:07;97388.34;;;20.50;100.00
13594;BME280;6449;47.666;9.160;2023-05-25T17:03:00;97387.53;;;20.58;100.00
13594;BME280;6449;47.666;9.160;2023-05-25T17:07:54;97388.69;;;20.63;100.00
13594;BME280;6449;47.666;9.160;2023-05-25T17:13:06;97392.84;;;20.58;100.00
13594;BME280;6449;47.666;9.160;2023-05-25T17:17:59;97389.34;;;20.65;100.00
13594;BME280;6449;47.666;9.160;2023-05-25T17:22:53;97391.50;;;20.70;100.00
13594;BME280;6449;47.666;9.160;2023-05-25T17:27:46;97408.16;;;20.56;100.00
13594;BME280;6449;47.666;9.160;2023-05-25T17:32:41;97408.00;;;20.57;100.00
13594;BME280;6449;47.666;9.160;2023-05-25T17:37:35;97404.66;;;20.47;100.00
13594;BME280;6449;47.666;9.160;2023-05-25T17:42:28;97416.75;;;20.33;100.00
13594;BME280;6449;47.666;9.160;2023-05-25T17:47:21;97413.16;;;20.51;100.00
13594;BME280;6449;47.666;9.160;2023-05-25T17:52:17;97413.97;;;20.35;100.00
13594;BME280;6449;47.666;9.160;2023-05-25T17:57:11;97419.28;;;20.35;100.00
13594;BME280;6449;47.666;9.160;2023-05-25T18:02:04;97415.91;;;20.17;100.00
13594;BME280;6449;47.666;9.160;2023-05-25T18:06:58;97418.56;;;20.17;100.00
13594;BME280;6449;47.666;9.160;2023-05-25T18:11:53;97412.56;;;20.06;100.00
13594;BME280;6449;47.666;9.160;2023-05-25T18:16:47;97422.69;;;19.95;100.00
13594;BME280;6449;47.666;9.160;2023-05-25T18:21:40;97422.69;;;19.95;100.00
13594;BME280;6449;47.666;9.160;2023-05-25T18:26:33;97411.69;;;19.89;100.00
13594;BME280;6449;47.666;9.160;2023-05-25T18:31:30;97417.63;;;19.75;100.00
13594;BME280;6449;47.666;9.160;2023-05-25T18:36:24;97419.22;;;19.60;100.00
13594;BME280;6449;47.666;9.160;2023-05-25T18:41:18;97430.13;;;19.49;100.00
13594;BME280;6449;47.666;9.160;2023-05-25T18:46:12;97420.13;;;19.43;100.00
13594;BME280;6449;47.666;9.160;2023-05-25T18:51:07;97429.00;;;19.25;100.00
13594;BME280;6449;47.666;9.160;2023-05-25T18:56:01;97425.31;;;19.18;100.00
13594;BME280;6449;47.666;9.160;2023-05-25T19:00:54;97424.84;;;18.97;100.00
13594;BME280;6449;47.666;9.160;2023-05-25T19:05:48;97433.97;;;18.94;100.00
13594;BME280;6449;47.666;9.160;2023-05-25T19:10:43;97433.75;;;18.88;100.00
13594;BME280;6449;47.666;9.160;2023-05-25T19:15:36;97427.28;;;18.90;100.00
13594;BME280;6449;47.666;9.160;2023-05-25T19:20:30;97433.44;;;18.91;100.00
13594;BME280;6449;47.666;9.160;2023-05-25T19:25:24;97430.94;;;18.89;100.00
13594;BME280;6449;47.666;9.160;2023-05-25T19:30:19;97444.47;;;18.78;100.00
13594;BME280;6449;47.666;9.160;2023-05-25T19:35:12;97452.53;;;18.68;100.00
13594;BME280;6449;47.666;9.160;2023-05-25T19:40:07;97451.72;;;18.58;100.00
13594;BME280;6449;47.666;9.160;2023-05-25T19:45:02;97456.91;;;18.59;100.00
13594;BME280;6449;47.666;9.160;2023-05-25T19:49:58;97465.16;;;18.56;100.00
13594;BME280;6449;47.666;9.160;2023-05-25T19:54:51;97468.81;;;18.55;100.00
13594;BME280;6449;47.666;9.160;2023-05-25T19:59:44;97477.25;;;18.51;100.00
13594;BME280;6449;47.666;9.160;2023-05-25T20:04:38;97476.56;;;18.49;100.00
13594;BME280;6449;47.666;9.160;2023-05-25T20:09:33;97480.50;;;18.27;100.00
13594;BME280;6449;47.666;9.160;2023-05-25T20:14:29;97487.78;;;17.97;100.00
13594;BME280;6449;47.666;9.160;2023-05-25T20:19:24;97489.78;;;17.95;100.00
13594;BME280;6449;47.666;9.160;2023-05-25T20:24:17;97497.81;;;17.76;100.00
13594;BME280;6449;47.666;9.160;2023-05-25T20:29:13;97495.75;;;17.60;100.00
13594;BME280;6449;47.666;9.160;2023-05-25T20:34:06;97490.50;;;17.41;100.00
13594;BME280;6449;47.666;9.160;2023-05-25T20:39:00;97490.81;;;17.38;100.00
13594;BME280;6449;47.666;9.160;2023-05-25T20:43:54;97503.56;;;17.52;100.00
13594;BME280;6449;47.666;9.160;2023-05-25T20:48:49;97504.06;;;17.38;100.00
13594;BME280;6449;47.666;9.160;2023-05-25T20:53:43;97495.28;;;17.27;100.00
13594;BME280;6449;47.666;9.160;2023-05-25T20:58:36;97496.97;;;17.19;100.00
13594;BME280;6449;47.666;9.160;2023-05-25T21:03:30;97507.88;;;17.06;100.00
13594;BME280;6449;47.666;9.160;2023-05-25T21:08:25;97500.22;;;16.93;100.00
13594;BME280;6449;47.666;9.160;2023-05-25T21:13:19;97501.47;;;16.99;100.00
13594;BME280;6449;47.666;9.160;2023-05-25T21:18:15;97500.78;;;16.87;100.00
13594;BME280;6449;47.666;9.160;2023-05-25T21:23:08;97499.00;;;16.78;100.00
13594;BME280;6449;47.666;9.160;2023-05-25T21:28:03;97500.94;;;16.86;100.00
13594;BME280;6449;47.666;9.160;2023-05-25T21:32:57;97499.69;;;16.90;100.00
13594;BME280;6449;47.666;9.160;2023-05-25T21:37:51;97499.53;;;16.82;100.00
13594;BME280;6449;47.666;9.160;2023-05-25T21:42:44;97498.00;;;16.69;100.00
13594;BME280;6449;47.666;9.160;2023-05-25T21:47:42;97497.41;;;16.56;100.00
13594;BME280;6449;47.666;9.160;2023-05-25T21:52:36;97500.63;;;16.69;100.00
13594;BME280;6449;47.666;9.160;2023-05-25T21:57:29;97495.63;;;16.57;100.00
13594;BME280;6449;47.666;9.160;2023-05-25T22:02:23;97494.78;;;16.56;100.00
13594;BME280;6449;47.666;9.160;2023-05-25T22:20:26;97497.50;;;16.06;100.00
13594;BME280;6449;47.666;9.160;2023-05-25T22:25:19;97492.91;;;16.08;100.00
13594;BME280;6449;47.666;9.160;2023-05-25T22:30:13;97491.94;;;16.19;100.00
13594;BME280;6449;47.666;9.160;2023-05-25T22:35:07;97497.25;;;16.09;100.00
13594;BME280;6449;47.666;9.160;2023-05-25T22:40:03;97494.72;;;16.17;100.00
13594;BME280;6449;47.666;9.160;2023-05-25T22:44:56;97488.19;;;16.21;100.00
13594;BME280;6449;47.666;9.160;2023-05-25T22:49:50;97484.88;;;16.48;100.00
13594;BME280;6449;47.666;9.160;2023-05-25T22:54:43;97492.09;;;16.27;100.00
13594;BME280;6449;47.666;9.160;2023-05-25T22:59:38;97490.44;;;16.26;100.00
13594;BME280;6449;47.666;9.160;2023-05-25T23:04:33;97487.72;;;15.97;100.00
13594;BME280;6449;47.666;9.160;2023-05-25T23:09:27;97494.16;;;16.04;100.00
13594;BME280;6449;47.666;9.160;2023-05-25T23:14:20;97491.09;;;16.18;100.00
13594;BME280;6449;47.666;9.160;2023-05-25T23:19:15;97495.03;;;16.34;100.00
13594;BME280;6449;47.666;9.160;2023-05-25T23:24:09;97492.06;;;15.98;100.00
13594;BME280;6449;47.666;9.160;2023-05-25T23:29:02;97481.75;;;15.95;100.00
13594;BME280;6449;47.666;9.160;2023-05-25T23:33:55;97478.81;;;15.88;100.00
13594;BME280;6449;47.666;9.160;2023-05-25T23:38:50;97485.38;;;15.94;100.00
13594;BME280;6449;47.666;9.160;2023-05-25T23:43:44;97474.69;;;16.15;100.00
13594;BME280;6449;47.666;9.160;2023-05-25T23:48:38;97482.84;;;15.83;100.00
13594;BME280;6449;47.666;9.160;2023-05-25T23:53:31;97477.13;;;15.78;100.00
13594;BME280;6449;47.666;9.160;2023-05-25T23:58:26;97477.06;;;15.68;100.00
